sensor_id;sensor_type;location;lat;lon;timestamp;temperature;humidity
23305;DHT22;11821;51.456;8.844;2022-08-07T00:01:46;14.50;99.90
23305;DHT22;11821;51.456;8.844;2022-08-07T00:04:12;14.50;99.90
23305;DHT22;11821;51.456;8.844;2022-08-07T00:06:39;14.40;99.90
23305;DHT22;11821;51.456;8.844;2022-08-07T00:09:05;14.40;99.90
23305;DHT22;11821;51.456;8.844;2022-08-07T00:11:31;14.40;99.90
23305;DHT22;11821;51.456;8.844;2022-08-07T00:13:57;14.40;99.90
23305;DHT22;11821;51.456;8.844;2022-08-07T00:16:24;14.40;99.90
23305;DHT22;11821;51.456;8.844;2022-08-07T00:18:50;14.30;99.90
23305;DHT22;11821;51.456;8.844;2022-08-07T00:21:17;14.30;99.90
23305;DHT22;11821;51.456;8.844;2022-08-07T00:23:43;14.30;99.90
23305;DHT22;11821;51.456;8.844;2022-08-07T00:26:10;14.10;99.90
23305;DHT22;11821;51.456;8.844;2022-08-07T00:28:37;14.10;99.90
23305;DHT22;11821;51.456;8.844;2022-08-07T00:31:07;14.10;99.90
23305;DHT22;11821;51.456;8.844;2022-08-07T00:33:38;14.10;99.90
23305;DHT22;11821;51.456;8.844;2022-08-07T00:36:06;14.10;99.90
23305;DHT22;11821;51.456;8.844;2022-08-07T00:38:33;14.10;99.90
23305;DHT22;11821;51.456;8.844;2022-08-07T00:41:02;14.10;99.90
23305;DHT22;11821;51.456;8.844;2022-08-07T00:43:30;14.10;99.90
23305;DHT22;11821;51.456;8.844;2022-08-07T00:45:57;14.00;99.90
23305;DHT22;11821;51.456;8.844;2022-08-07T00:48:23;14.00;99.90
23305;DHT22;11821;51.456;8.844;2022-08-07T00:50:50;14.00;99.90
23305;DHT22;11821;51.456;8.844;2022-08-07T00:53:17;14.00;99.90
23305;DHT22;11821;51.456;8.844;2022-08-07T00:55:44;13.90;99.90
23305;DHT22;11821;51.456;8.844;2022-08-07T00:58:10;13.90;99.90
23305;DHT22;11821;51.456;8.844;2022-08-07T01:00:36;13.90;99.90
23305;DHT22;11821;51.456;8.844;2022-08-07T01:03:03;13.90;99.90
23305;DHT22;11821;51.456;8.844;2022-08-07T01:05:31;13.90;99.90
23305;DHT22;11821;51.456;8.844;2022-08-07T01:07:58;13.90;99.90
23305;DHT22;11821;51.456;8.844;2022-08-07T01:10:24;13.80;99.90
23305;DHT22;11821;51.456;8.844;2022-08-07T01:12:51;13.80;99.90
23305;DHT22;11821;51.456;8.844;2022-08-07T01:15:18;13.70;99.90
23305;DHT22;11821;51.456;8.844;2022-08-07T01:17:45;13.80;99.90
23305;DHT22;11821;51.456;8.844;2022-08-07T01:20:12;13.80;99.90
23305;DHT22;11821;51.456;8.844;2022-08-07T01:22:39;13.70;99.90
23305;DHT22;11821;51.456;8.844;2022-08-07T01:25:08;13.70;99.90
23305;DHT22;11821;51.456;8.844;2022-08-07T01:27:35;13.70;99.90
23305;DHT22;11821;51.456;8.844;2022-08-07T01:30:03;13.60;99.90
23305;DHT22;11821;51.456;8.844;2022-08-07T01:32:30;13.60;99.90
23305;DHT22;11821;51.456;8.844;2022-08-07T01:34:59;13.60;99.90
23305;DHT22;11821;51.456;8.844;2022-08-07T01:37:26;13.50;99.90
23305;DHT22;11821;51.456;8.844;2022-08-07T01:39:54;13.50;99.90
23305;DHT22;11821;51.456;8.844;2022-08-07T01:42:28;13.50;99.90
23305;DHT22;11821;51.456;8.844;2022-08-07T01:44:54;13.50;99.90
23305;DHT22;11821;51.456;8.844;2022-08-07T01:47:21;13.40;99.90
23305;DHT22;11821;51.456;8.844;2022-08-07T01:49:48;13.40;99.90
23305;DHT22;11821;51.456;8.844;2022-08-07T01:52:15;13.30;99.90
23305;DHT22;11821;51.456;8.844;2022-08-07T01:54:43;13.30;99.90
23305;DHT22;11821;51.456;8.844;2022-08-07T01:57:20;13.30;99.90
23305;DHT22;11821;51.456;8.844;2022-08-07T01:59:53;13.30;99.90
23305;DHT22;11821;51.456;8.844;2022-08-07T02:02:24;13.30;99.90
23305;DHT22;11821;51.456;8.844;2022-08-07T02:04:59;13.30;99.90
23305;DHT22;11821;51.456;8.844;2022-08-07T02:07:35;13.30;99.90
23305;DHT22;11821;51.456;8.844;2022-08-07T02:10:04;13.20;99.90
23305;DHT22;11821;51.456;8.844;2022-08-07T02:12:39;13.20;99.90
23305;DHT22;11821;51.456;8.844;2022-08-07T02:15:11;13.20;99.90
23305;DHT22;11821;51.456;8.844;2022-08-07T02:17:41;13.10;99.90
23305;DHT22;11821;51.456;8.844;2022-08-07T02:20:09;13.10;99.90
23305;DHT22;11821;51.456;8.844;2022-08-07T02:22:38;13.20;99.90
23305;DHT22;11821;51.456;8.844;2022-08-07T02:25:07;13.10;99.90
23305;DHT22;11821;51.456;8.844;2022-08-07T02:27:35;13.10;99.90
23305;DHT22;11821;51.456;8.844;2022-08-07T02:30:04;13.10;99.90
23305;DHT22;11821;51.456;8.844;2022-08-07T02:32:35;13.00;99.90
23305;DHT22;11821;51.456;8.844;2022-08-07T02:35:03;13.00;99.90
23305;DHT22;11821;51.456;8.844;2022-08-07T02:37:33;13.00;99.90
23305;DHT22;11821;51.456;8.844;2022-08-07T02:40:04;13.00;99.90
23305;DHT22;11821;51.456;8.844;2022-08-07T02:42:31;13.00;99.90
23305;DHT22;11821;51.456;8.844;2022-08-07T02:45:02;12.90;99.90
23305;DHT22;11821;51.456;8.844;2022-08-07T02:47:29;12.90;99.90
23305;DHT22;11821;51.456;8.844;2022-08-07T02:50:05;12.90;99.90
23305;DHT22;11821;51.456;8.844;2022-08-07T02:52:38;12.90;99.90
23305;DHT22;11821;51.456;8.844;2022-08-07T02:55:30;12.90;99.90
23305;DHT22;11821;51.456;8.844;2022-08-07T02:58:02;12.90;99.90
23305;DHT22;11821;51.456;8.844;2022-08-07T03:00:33;12.80;99.90
23305;DHT22;11821;51.456;8.844;2022-08-07T03:03:00;12.80;99.90
23305;DHT22;11821;51.456;8.844;2022-08-07T03:05:30;12.70;99.90
23305;DHT22;11821;51.456;8.844;2022-08-07T03:07:56;12.70;99.90
23305;DHT22;11821;51.456;8.844;2022-08-07T03:10:24;12.70;99.90
23305;DHT22;11821;51.456;8.844;2022-08-07T03:12:52;12.70;99.90
23305;DHT22;11821;51.456;8.844;2022-08-07T03:15:19;12.70;99.90
23305;DHT22;11821;51.456;8.844;2022-08-07T03:17:46;12.60;99.90
23305;DHT22;11821;51.456;8.844;2022-08-07T03:20:13;12.60;99.90
23305;DHT22;11821;51.456;8.844;2022-08-07T03:22:41;12.60;99.90
23305;DHT22;11821;51.456;8.844;2022-08-07T03:25:08;12.60;99.90
23305;DHT22;11821;51.456;8.844;2022-08-07T03:27:41;12.60;99.90
23305;DHT22;11821;51.456;8.844;2022-08-07T03:30:12;12.60;99.90
23305;DHT22;11821;51.456;8.844;2022-08-07T03:32:42;12.50;99.90
23305;DHT22;11821;51.456;8.844;2022-08-07T03:35:18;12.50;99.90
23305;DHT22;11821;51.456;8.844;2022-08-07T03:37:52;12.50;99.90
23305;DHT22;11821;51.456;8.844;2022-08-07T03:40:19;12.50;99.90
23305;DHT22;11821;51.456;8.844;2022-08-07T03:42:46;12.50;99.90
23305;DHT22;11821;51.456;8.844;2022-08-07T03:45:14;12.50;99.90
23305;DHT22;11821;51.456;8.844;2022-08-07T03:47:41;12.50;99.90
23305;DHT22;11821;51.456;8.844;2022-08-07T03:50:07;12.40;99.90
23305;DHT22;11821;51.456;8.844;2022-08-07T03:52:37;12.40;99.90
23305;DHT22;11821;51.456;8.844;2022-08-07T03:55:07;12.40;99.90
23305;DHT22;11821;51.456;8.844;2022-08-07T03:57:36;12.40;99.90
23305;DHT22;11821;51.456;8.844;2022-08-07T04:00:03;12.40;99.90
23305;DHT22;11821;51.456;8.844;2022-08-07T04:02:41;12.30;99.90
23305;DHT22;11821;51.456;8.844;2022-08-07T04:05:10;12.30;99.90
23305;DHT22;11821;51.456;8.844;2022-08-07T04:07:46;12.30;99.90
23305;DHT22;11821;51.456;8.844;2022-08-07T04:10:15;12.30;99.90
23305;DHT22;11821;51.456;8.844;2022-08-07T04:12:42;12.30;99.90
23305;DHT22;11821;51.456;8.844;2022-08-07T04:15:09;12.20;99.90
23305;DHT22;11821;51.456;8.844;2022-08-07T04:17:37;12.20;99.90
23305;DHT22;11821;51.456;8.844;2022-08-07T04:20:08;12.20;99.90
23305;DHT22;11821;51.456;8.844;2022-08-07T04:22:36;12.20;99.90
23305;DHT22;11821;51.456;8.844;2022-08-07T04:25:05;12.30;99.90
23305;DHT22;11821;51.456;8.844;2022-08-07T04:27:33;12.20;99.90
23305;DHT22;11821;51.456;8.844;2022-08-07T04:30:00;12.20;99.90
23305;DHT22;11821;51.456;8.844;2022-08-07T04:32:33;12.30;99.90
23305;DHT22;11821;51.456;8.844;2022-08-07T04:35:02;12.20;99.90
23305;DHT22;11821;51.456;8.844;2022-08-07T04:37:30;12.20;99.90
23305;DHT22;11821;51.456;8.844;2022-08-07T04:39:57;12.20;99.90
23305;DHT22;11821;51.456;8.844;2022-08-07T04:42:23;12.20;99.90
23305;DHT22;11821;51.456;8.844;2022-08-07T04:44:54;12.30;99.90
23305;DHT22;11821;51.456;8.844;2022-08-07T04:50:22;12.30;99.90
23305;DHT22;11821;51.456;8.844;2022-08-07T04:53:16;12.40;99.90
23305;DHT22;11821;51.456;8.844;2022-08-07T04:55:52;12.40;99.90
23305;DHT22;11821;51.456;8.844;2022-08-07T05:01:27;12.50;99.90
23305;DHT22;11821;51.456;8.844;2022-08-07T05:07:33;12.60;99.90
23305;DHT22;11821;51.456;8.844;2022-08-07T05:10:10;12.60;99.90
23305;DHT22;11821;51.456;8.844;2022-08-07T05:12:57;12.70;99.90
23305;DHT22;11821;51.456;8.844;2022-08-07T05:15:29;12.70;99.90
23305;DHT22;11821;51.456;8.844;2022-08-07T05:18:04;12.70;99.90
23305;DHT22;11821;51.456;8.844;2022-08-07T05:20:40;12.80;99.90
23305;DHT22;11821;51.456;8.844;2022-08-07T05:23:15;12.80;99.90
23305;DHT22;11821;51.456;8.844;2022-08-07T05:25:46;12.90;99.90
23305;DHT22;11821;51.456;8.844;2022-08-07T05:28:14;13.00;99.90
23305;DHT22;11821;51.456;8.844;2022-08-07T05:30:43;13.00;99.90
23305;DHT22;11821;51.456;8.844;2022-08-07T05:33:12;13.10;99.90
23305;DHT22;11821;51.456;8.844;2022-08-07T05:35:38;13.20;99.90
23305;DHT22;11821;51.456;8.844;2022-08-07T05:38:05;13.20;99.90
23305;DHT22;11821;51.456;8.844;2022-08-07T05:40:34;13.20;99.90
23305;DHT22;11821;51.456;8.844;2022-08-07T05:43:02;13.30;99.90
23305;DHT22;11821;51.456;8.844;2022-08-07T05:45:29;13.30;99.90
23305;DHT22;11821;51.456;8.844;2022-08-07T05:48:02;13.30;99.90
23305;DHT22;11821;51.456;8.844;2022-08-07T05:50:43;13.40;99.90
23305;DHT22;11821;51.456;8.844;2022-08-07T05:53:12;13.60;99.90
23305;DHT22;11821;51.456;8.844;2022-08-07T05:55:39;13.60;99.90
23305;DHT22;11821;51.456;8.844;2022-08-07T05:58:05;13.70;99.90
23305;DHT22;11821;51.456;8.844;2022-08-07T06:00:33;13.70;99.90
23305;DHT22;11821;51.456;8.844;2022-08-07T06:03:06;13.80;99.90
23305;DHT22;11821;51.456;8.844;2022-08-07T06:05:34;13.90;99.90
23305;DHT22;11821;51.456;8.844;2022-08-07T06:08:07;13.90;99.90
23305;DHT22;11821;51.456;8.844;2022-08-07T06:10:36;14.00;99.90
23305;DHT22;11821;51.456;8.844;2022-08-07T06:13:05;14.10;99.90
23305;DHT22;11821;51.456;8.844;2022-08-07T06:15:48;14.30;99.90
23305;DHT22;11821;51.456;8.844;2022-08-07T06:18:19;14.40;99.90
23305;DHT22;11821;51.456;8.844;2022-08-07T06:20:47;14.50;99.90
23305;DHT22;11821;51.456;8.844;2022-08-07T06:23:13;14.50;99.90
23305;DHT22;11821;51.456;8.844;2022-08-07T06:25:42;14.50;99.90
23305;DHT22;11821;51.456;8.844;2022-08-07T06:28:10;14.60;99.90
23305;DHT22;11821;51.456;8.844;2022-08-07T06:30:37;14.80;99.90
23305;DHT22;11821;51.456;8.844;2022-08-07T06:33:13;15.00;99.90
23305;DHT22;11821;51.456;8.844;2022-08-07T06:35:39;15.10;99.90
23305;DHT22;11821;51.456;8.844;2022-08-07T06:38:06;15.30;99.90
23305;DHT22;11821;51.456;8.844;2022-08-07T06:40:39;15.50;99.90
23305;DHT22;11821;51.456;8.844;2022-08-07T06:43:09;15.70;99.90
23305;DHT22;11821;51.456;8.844;2022-08-07T06:45:48;15.90;99.90
23305;DHT22;11821;51.456;8.844;2022-08-07T06:48:14;16.10;99.90
23305;DHT22;11821;51.456;8.844;2022-08-07T06:50:44;16.30;99.90
23305;DHT22;11821;51.456;8.844;2022-08-07T06:53:13;16.50;99.90
23305;DHT22;11821;51.456;8.844;2022-08-07T06:55:41;16.60;99.90
23305;DHT22;11821;51.456;8.844;2022-08-07T06:58:11;16.80;99.90
23305;DHT22;11821;51.456;8.844;2022-08-07T07:00:48;17.10;99.90
23305;DHT22;11821;51.456;8.844;2022-08-07T07:03:15;17.20;99.90
23305;DHT22;11821;51.456;8.844;2022-08-07T07:05:42;17.40;99.90
23305;DHT22;11821;51.456;8.844;2022-08-07T07:08:08;17.70;99.90
23305;DHT22;11821;51.456;8.844;2022-08-07T07:10:37;17.90;99.90
23305;DHT22;11821;51.456;8.844;2022-08-07T07:13:10;18.10;99.90
23305;DHT22;11821;51.456;8.844;2022-08-07T07:15:47;18.40;99.90
23305;DHT22;11821;51.456;8.844;2022-08-07T07:18:24;18.60;99.90
23305;DHT22;11821;51.456;8.844;2022-08-07T07:21:02;18.90;99.90
23305;DHT22;11821;51.456;8.844;2022-08-07T07:23:29;19.10;99.90
23305;DHT22;11821;51.456;8.844;2022-08-07T07:26:03;19.30;99.90
23305;DHT22;11821;51.456;8.844;2022-08-07T07:28:42;19.60;99.90
23305;DHT22;11821;51.456;8.844;2022-08-07T07:31:34;19.80;99.90
23305;DHT22;11821;51.456;8.844;2022-08-07T07:34:07;20.00;99.90
23305;DHT22;11821;51.456;8.844;2022-08-07T07:36:37;20.20;99.90
23305;DHT22;11821;51.456;8.844;2022-08-07T07:39:04;20.40;99.90
23305;DHT22;11821;51.456;8.844;2022-08-07T07:41:35;20.50;99.90
23305;DHT22;11821;51.456;8.844;2022-08-07T07:44:03;20.70;99.80
23305;DHT22;11821;51.456;8.844;2022-08-07T07:46:33;20.90;99.60
23305;DHT22;11821;51.456;8.844;2022-08-07T07:49:00;21.10;99.30
23305;DHT22;11821;51.456;8.844;2022-08-07T07:51:28;21.10;99.50
23305;DHT22;11821;51.456;8.844;2022-08-07T07:53:55;21.30;99.60
23305;DHT22;11821;51.456;8.844;2022-08-07T07:56:24;21.50;98.70
23305;DHT22;11821;51.456;8.844;2022-08-07T07:58:52;21.80;99.50
23305;DHT22;11821;51.456;8.844;2022-08-07T08:01:20;22.00;99.30
23305;DHT22;11821;51.456;8.844;2022-08-07T08:03:48;22.20;98.60
23305;DHT22;11821;51.456;8.844;2022-08-07T08:06:16;22.50;99.20
23305;DHT22;11821;51.456;8.844;2022-08-07T08:08:45;22.70;98.40
23305;DHT22;11821;51.456;8.844;2022-08-07T08:11:12;22.90;97.50
23305;DHT22;11821;51.456;8.844;2022-08-07T08:13:42;23.20;97.40
23305;DHT22;11821;51.456;8.844;2022-08-07T08:16:13;23.30;96.90
23305;DHT22;11821;51.456;8.844;2022-08-07T08:18:43;23.30;96.00
23305;DHT22;11821;51.456;8.844;2022-08-07T08:21:15;23.60;96.90
23305;DHT22;11821;51.456;8.844;2022-08-07T08:24:03;23.70;95.90
23305;DHT22;11821;51.456;8.844;2022-08-07T08:26:54;23.60;96.00
23305;DHT22;11821;51.456;8.844;2022-08-07T08:29:37;23.90;94.60
23305;DHT22;11821;51.456;8.844;2022-08-07T08:32:06;24.20;94.60
23305;DHT22;11821;51.456;8.844;2022-08-07T08:34:35;24.40;94.70
23305;DHT22;11821;51.456;8.844;2022-08-07T08:37:04;24.60;93.40
23305;DHT22;11821;51.456;8.844;2022-08-07T08:39:32;24.70;92.10
23305;DHT22;11821;51.456;8.844;2022-08-07T08:42:04;24.90;93.10
23305;DHT22;11821;51.456;8.844;2022-08-07T08:44:45;25.20;91.50
23305;DHT22;11821;51.456;8.844;2022-08-07T08:50:11;25.60;90.40
23305;DHT22;11821;51.456;8.844;2022-08-07T08:52:51;25.90;90.90
23305;DHT22;11821;51.456;8.844;2022-08-07T09:01:45;26.40;86.70
23305;DHT22;11821;51.456;8.844;2022-08-07T09:12:55;26.70;85.20
23305;DHT22;11821;51.456;8.844;2022-08-07T09:16:03;26.60;85.00
23305;DHT22;11821;51.456;8.844;2022-08-07T09:32:22;27.50;80.70
23305;DHT22;11821;51.456;8.844;2022-08-07T09:35:05;27.70;78.60
23305;DHT22;11821;51.456;8.844;2022-08-07T09:37:35;27.70;76.40
23305;DHT22;11821;51.456;8.844;2022-08-07T09:40:34;27.40;78.50
23305;DHT22;11821;51.456;8.844;2022-08-07T09:43:38;27.30;74.50
23305;DHT22;11821;51.456;8.844;2022-08-07T09:53:55;28.30;73.00
23305;DHT22;11821;51.456;8.844;2022-08-07T09:56:38;28.50;76.10
23305;DHT22;11821;51.456;8.844;2022-08-07T09:59:25;28.50;73.40
23305;DHT22;11821;51.456;8.844;2022-08-07T10:21:38;29.00;71.00
23305;DHT22;11821;51.456;8.844;2022-08-07T10:35:02;29.20;72.50
23305;DHT22;11821;51.456;8.844;2022-08-07T10:38:01;29.30;75.30
23305;DHT22;11821;51.456;8.844;2022-08-07T10:40:39;29.50;74.90
23305;DHT22;11821;51.456;8.844;2022-08-07T10:43:29;29.60;73.60
23305;DHT22;11821;51.456;8.844;2022-08-07T10:46:00;29.60;72.60
23305;DHT22;11821;51.456;8.844;2022-08-07T10:51:44;30.10;75.90
23305;DHT22;11821;51.456;8.844;2022-08-07T10:57:14;30.40;73.90
23305;DHT22;11821;51.456;8.844;2022-08-07T11:00:04;30.50;73.00
23305;DHT22;11821;51.456;8.844;2022-08-07T11:05:57;30.50;70.20
23305;DHT22;11821;51.456;8.844;2022-08-07T11:08:51;30.10;72.80
23305;DHT22;11821;51.456;8.844;2022-08-07T11:11:42;30.30;71.30
23305;DHT22;11821;51.456;8.844;2022-08-07T11:14:29;30.40;69.50
23305;DHT22;11821;51.456;8.844;2022-08-07T11:17:07;30.70;71.70
23305;DHT22;11821;51.456;8.844;2022-08-07T11:19:41;30.80;71.60
23305;DHT22;11821;51.456;8.844;2022-08-07T11:22:39;30.50;66.90
23305;DHT22;11821;51.456;8.844;2022-08-07T11:28:05;30.60;75.90
23305;DHT22;11821;51.456;8.844;2022-08-07T11:30:44;31.00;75.30
23305;DHT22;11821;51.456;8.844;2022-08-07T11:33:26;31.10;71.60
23305;DHT22;11821;51.456;8.844;2022-08-07T11:41:45;31.20;71.50
23305;DHT22;11821;51.456;8.844;2022-08-07T11:50:43;31.60;70.30
23305;DHT22;11821;51.456;8.844;2022-08-07T11:53:23;31.70;71.10
23305;DHT22;11821;51.456;8.844;2022-08-07T11:56:05;31.60;74.70
23305;DHT22;11821;51.456;8.844;2022-08-07T12:04:23;31.10;72.50
23305;DHT22;11821;51.456;8.844;2022-08-07T12:06:58;31.30;71.80
23305;DHT22;11821;51.456;8.844;2022-08-07T12:10:27;31.30;69.70
23305;DHT22;11821;51.456;8.844;2022-08-07T12:12:34;31.50;70.90
23305;DHT22;11821;51.456;8.844;2022-08-07T12:17:48;31.70;67.50
23305;DHT22;11821;51.456;8.844;2022-08-07T12:21:19;31.90;67.90
23305;DHT22;11821;51.456;8.844;2022-08-07T12:23:45;32.00;68.00
23305;DHT22;11821;51.456;8.844;2022-08-07T12:34:33;31.70;69.20
23305;DHT22;11821;51.456;8.844;2022-08-07T12:37:01;31.50;71.30
23305;DHT22;11821;51.456;8.844;2022-08-07T12:39:29;31.20;68.50
23305;DHT22;11821;51.456;8.844;2022-08-07T12:41:58;31.30;66.70
23305;DHT22;11821;51.456;8.844;2022-08-07T12:44:26;31.30;70.20
23305;DHT22;11821;51.456;8.844;2022-08-07T12:55:45;31.80;68.90
23305;DHT22;11821;51.456;8.844;2022-08-07T12:58:17;31.80;68.30
23305;DHT22;11821;51.456;8.844;2022-08-07T13:12:05;32.40;65.60
23305;DHT22;11821;51.456;8.844;2022-08-07T13:17:23;31.80;67.30
23305;DHT22;11821;51.456;8.844;2022-08-07T13:19:59;31.70;69.70
23305;DHT22;11821;51.456;8.844;2022-08-07T13:25:12;32.30;69.80
23305;DHT22;11821;51.456;8.844;2022-08-07T13:28:01;32.50;70.90
23305;DHT22;11821;51.456;8.844;2022-08-07T13:30:30;32.40;65.00
23305;DHT22;11821;51.456;8.844;2022-08-07T13:35:35;31.70;70.80
23305;DHT22;11821;51.456;8.844;2022-08-07T13:38:23;31.90;66.10
23305;DHT22;11821;51.456;8.844;2022-08-07T13:41:19;32.30;72.80
23305;DHT22;11821;51.456;8.844;2022-08-07T13:43:47;32.50;65.90
23305;DHT22;11821;51.456;8.844;2022-08-07T13:46:17;32.50;64.80
23305;DHT22;11821;51.456;8.844;2022-08-07T13:48:46;32.70;64.80
23305;DHT22;11821;51.456;8.844;2022-08-07T13:51:14;32.60;61.10
23305;DHT22;11821;51.456;8.844;2022-08-07T13:53:42;32.50;65.10
23305;DHT22;11821;51.456;8.844;2022-08-07T13:56:16;32.40;64.00
23305;DHT22;11821;51.456;8.844;2022-08-07T13:58:47;32.30;65.50
23305;DHT22;11821;51.456;8.844;2022-08-07T14:01:33;32.20;67.20
23305;DHT22;11821;51.456;8.844;2022-08-07T14:04:07;32.10;68.20
23305;DHT22;11821;51.456;8.844;2022-08-07T14:06:38;32.00;66.10
23305;DHT22;11821;51.456;8.844;2022-08-07T14:09:08;31.70;64.80
23305;DHT22;11821;51.456;8.844;2022-08-07T14:11:44;31.90;66.90
23305;DHT22;11821;51.456;8.844;2022-08-07T14:14:13;31.70;63.20
23305;DHT22;11821;51.456;8.844;2022-08-07T14:16:44;31.70;68.00
23305;DHT22;11821;51.456;8.844;2022-08-07T14:19:19;31.60;67.20
23305;DHT22;11821;51.456;8.844;2022-08-07T14:21:50;31.80;70.30
23305;DHT22;11821;51.456;8.844;2022-08-07T14:24:58;31.80;65.90
23305;DHT22;11821;51.456;8.844;2022-08-07T14:27:25;31.80;69.40
23305;DHT22;11821;51.456;8.844;2022-08-07T14:29:57;31.40;65.40
23305;DHT22;11821;51.456;8.844;2022-08-07T14:32:27;31.50;67.80
23305;DHT22;11821;51.456;8.844;2022-08-07T14:34:55;31.60;65.50
23305;DHT22;11821;51.456;8.844;2022-08-07T14:37:23;31.60;68.20
23305;DHT22;11821;51.456;8.844;2022-08-07T14:39:51;31.60;67.10
23305;DHT22;11821;51.456;8.844;2022-08-07T14:42:23;31.50;67.50
23305;DHT22;11821;51.456;8.844;2022-08-07T14:44:54;31.40;64.50
23305;DHT22;11821;51.456;8.844;2022-08-07T14:47:24;31.10;67.60
23305;DHT22;11821;51.456;8.844;2022-08-07T14:49:52;31.10;67.90
23305;DHT22;11821;51.456;8.844;2022-08-07T14:52:20;31.10;69.40
23305;DHT22;11821;51.456;8.844;2022-08-07T14:54:48;30.80;70.00
23305;DHT22;11821;51.456;8.844;2022-08-07T14:57:16;30.50;73.10
23305;DHT22;11821;51.456;8.844;2022-08-07T14:59:45;30.20;69.20
23305;DHT22;11821;51.456;8.844;2022-08-07T15:02:16;30.10;71.00
23305;DHT22;11821;51.456;8.844;2022-08-07T15:04:46;29.90;71.80
23305;DHT22;11821;51.456;8.844;2022-08-07T15:07:20;29.90;70.20
23305;DHT22;11821;51.456;8.844;2022-08-07T15:09:49;29.90;72.20
23305;DHT22;11821;51.456;8.844;2022-08-07T15:12:22;30.00;70.60
23305;DHT22;11821;51.456;8.844;2022-08-07T15:15:10;30.10;72.00
23305;DHT22;11821;51.456;8.844;2022-08-07T15:17:43;30.10;68.40
23305;DHT22;11821;51.456;8.844;2022-08-07T15:20:15;30.10;72.30
23305;DHT22;11821;51.456;8.844;2022-08-07T15:22:46;30.10;66.70
23305;DHT22;11821;51.456;8.844;2022-08-07T15:25:15;30.00;71.40
23305;DHT22;11821;51.456;8.844;2022-08-07T15:27:44;30.10;73.20
23305;DHT22;11821;51.456;8.844;2022-08-07T15:30:13;29.20;67.60
23305;DHT22;11821;51.456;8.844;2022-08-07T15:32:41;29.10;71.50
23305;DHT22;11821;51.456;8.844;2022-08-07T15:35:20;29.10;70.60
23305;DHT22;11821;51.456;8.844;2022-08-07T15:37:51;29.20;72.60
23305;DHT22;11821;51.456;8.844;2022-08-07T15:40:19;29.20;71.40
23305;DHT22;11821;51.456;8.844;2022-08-07T15:42:53;29.20;71.90
23305;DHT22;11821;51.456;8.844;2022-08-07T15:48:04;28.90;71.10
23305;DHT22;11821;51.456;8.844;2022-08-07T15:50:36;29.00;72.00
23305;DHT22;11821;51.456;8.844;2022-08-07T15:53:09;28.90;71.00
23305;DHT22;11821;51.456;8.844;2022-08-07T15:55:43;28.80;72.60
23305;DHT22;11821;51.456;8.844;2022-08-07T15:58:13;28.70;70.50
23305;DHT22;11821;51.456;8.844;2022-08-07T16:00:41;28.40;71.70
23305;DHT22;11821;51.456;8.844;2022-08-07T16:03:17;28.30;73.10
23305;DHT22;11821;51.456;8.844;2022-08-07T16:05:50;28.20;73.60
23305;DHT22;11821;51.456;8.844;2022-08-07T16:08:22;28.30;74.80
23305;DHT22;11821;51.456;8.844;2022-08-07T16:22:10;27.90;74.80
23305;DHT22;11821;51.456;8.844;2022-08-07T16:24:56;27.90;72.10
23305;DHT22;11821;51.456;8.844;2022-08-07T16:27:37;27.90;74.60
23305;DHT22;11821;51.456;8.844;2022-08-07T16:30:17;27.80;73.10
23305;DHT22;11821;51.456;8.844;2022-08-07T16:33:02;27.40;72.90
23305;DHT22;11821;51.456;8.844;2022-08-07T16:35:47;27.70;74.00
23305;DHT22;11821;51.456;8.844;2022-08-07T16:52:26;27.70;73.00
23305;DHT22;11821;51.456;8.844;2022-08-07T16:57:34;27.80;76.30
23305;DHT22;11821;51.456;8.844;2022-08-07T17:00:16;27.70;74.70
23305;DHT22;11821;51.456;8.844;2022-08-07T17:03:18;27.50;74.00
23305;DHT22;11821;51.456;8.844;2022-08-07T17:06:12;27.30;73.60
23305;DHT22;11821;51.456;8.844;2022-08-07T17:09:02;27.10;74.80
23305;DHT22;11821;51.456;8.844;2022-08-07T17:11:36;27.10;74.30
23305;DHT22;11821;51.456;8.844;2022-08-07T17:14:10;27.10;75.70
23305;DHT22;11821;51.456;8.844;2022-08-07T17:16:51;27.10;76.80
23305;DHT22;11821;51.456;8.844;2022-08-07T17:19:38;27.20;77.00
23305;DHT22;11821;51.456;8.844;2022-08-07T17:22:12;27.20;75.00
23305;DHT22;11821;51.456;8.844;2022-08-07T17:27:42;27.20;77.70
23305;DHT22;11821;51.456;8.844;2022-08-07T17:30:11;27.00;74.60
23305;DHT22;11821;51.456;8.844;2022-08-07T17:33:08;27.00;75.70
23305;DHT22;11821;51.456;8.844;2022-08-07T17:41:04;26.70;74.60
23305;DHT22;11821;51.456;8.844;2022-08-07T17:43:35;26.60;74.80
23305;DHT22;11821;51.456;8.844;2022-08-07T17:46:16;26.60;75.90
23305;DHT22;11821;51.456;8.844;2022-08-07T17:49:17;26.20;76.50
23305;DHT22;11821;51.456;8.844;2022-08-07T17:54:46;26.10;77.30
23305;DHT22;11821;51.456;8.844;2022-08-07T18:00:05;26.00;77.30
23305;DHT22;11821;51.456;8.844;2022-08-07T18:05:30;25.80;77.80
23305;DHT22;11821;51.456;8.844;2022-08-07T18:10:48;25.70;80.30
23305;DHT22;11821;51.456;8.844;2022-08-07T18:21:49;25.30;84.70
23305;DHT22;11821;51.456;8.844;2022-08-07T18:24:44;25.10;85.90
23305;DHT22;11821;51.456;8.844;2022-08-07T18:27:36;25.00;87.80
23305;DHT22;11821;51.456;8.844;2022-08-07T18:30:25;24.80;87.20
23305;DHT22;11821;51.456;8.844;2022-08-07T18:50:09;23.80;90.10
23305;DHT22;11821;51.456;8.844;2022-08-07T18:53:08;23.70;90.20
23305;DHT22;11821;51.456;8.844;2022-08-07T18:58:58;23.50;90.70
23305;DHT22;11821;51.456;8.844;2022-08-07T19:06:52;23.20;91.40
23305;DHT22;11821;51.456;8.844;2022-08-07T19:09:30;23.10;91.30
23305;DHT22;11821;51.456;8.844;2022-08-07T19:12:19;23.00;91.60
23305;DHT22;11821;51.456;8.844;2022-08-07T19:15:00;22.80;91.20
23305;DHT22;11821;51.456;8.844;2022-08-07T19:23:20;22.60;92.10
23305;DHT22;11821;51.456;8.844;2022-08-07T19:25:56;22.50;92.90
23305;DHT22;11821;51.456;8.844;2022-08-07T19:28:26;22.50;93.10
23305;DHT22;11821;51.456;8.844;2022-08-07T19:30:55;22.30;94.10
23305;DHT22;11821;51.456;8.844;2022-08-07T19:33:26;22.10;94.10
23305;DHT22;11821;51.456;8.844;2022-08-07T19:35:55;22.10;93.30
23305;DHT22;11821;51.456;8.844;2022-08-07T19:38:25;22.00;93.70
23305;DHT22;11821;51.456;8.844;2022-08-07T19:40:57;22.00;94.50
23305;DHT22;11821;51.456;8.844;2022-08-07T19:43:27;21.90;94.00
23305;DHT22;11821;51.456;8.844;2022-08-07T19:45:57;21.80;93.80
23305;DHT22;11821;51.456;8.844;2022-08-07T19:51:05;21.60;94.30
23305;DHT22;11821;51.456;8.844;2022-08-07T19:53:32;21.50;95.40
23305;DHT22;11821;51.456;8.844;2022-08-07T19:56:04;21.40;95.70
23305;DHT22;11821;51.456;8.844;2022-08-07T19:58:33;21.40;95.40
23305;DHT22;11821;51.456;8.844;2022-08-07T20:01:00;21.30;95.70
23305;DHT22;11821;51.456;8.844;2022-08-07T20:03:28;21.20;96.60
23305;DHT22;11821;51.456;8.844;2022-08-07T20:05:58;21.10;96.00
23305;DHT22;11821;51.456;8.844;2022-08-07T20:08:31;21.00;96.40